Date,TemperatureHighF,TemperatureAvgF,TemperatureLowF,DewpointHighF,DewpointAvgF,DewpointLowF,HumidityHigh,HumidityAvg,HumidityLow,PressureMaxIn,PressureMinIn,WindSpeedMaxMPH,WindSpeedAvgMPH,GustSpeedMaxMPH,PrecipitationSumIn
2013-3-1,28.0,21.5,16.0,14.0,10.2,2.0,75,62,46,0.00,40.00,0,0,0,0.00
2013-3-2,27.0,13.8,-2.0,10.0,3.4,-5.0,91,66,33,0.00,40.00,0,0,0,0.00
2013-3-3,29.0,11.7,-3.0,6.0,-2.4,-7.0,88,58,25,0.00,40.00,0,0,0,0.00
2013-3-4,28.0,18.6,2.0,15.0,8.4,-6.0,83,65,45,0.00,40.00,0,0,0,0.00
2013-3-5,27.0,24.1,22.0,24.0,18.4,12.0,93,79,59,0.00,40.00,0,0,0,0.00
2013-3-6,29.0,23.1,15.0,20.0,16.9,9.0,92,78,58,0.00,40.00,0,0,0,0.00
2013-3-7,30.0,16.0,-1.0,14.0,7.5,-4.0,91,72,41,0.00,40.00,0,0,0,0.00
2013-3-8,37.0,26.1,13.0,23.0,18.7,12.0,96,75,51,0.00,40.00,0,0,0,0.00
2013-3-9,34.0,31.3,27.0,33.0,29.0,24.0,98,91,83,0.00,40.00,0,0,0,0.00
2013-3-10,36.0,33.3,29.0,34.0,32.0,28.0,98,95,83,0.00,40.00,0,0,1,0.00
2013-3-11,28.0,26.7,23.0,27.0,24.9,19.0,98,92,82,0.00,40.00,0,0,0,0.00
2013-3-12,27.0,22.4,17.0,19.0,16.3,10.0,89,78,47,0.00,40.00,0,0,1,0.00
2013-3-13,28.0,19.7,11.0,13.0,4.9,-2.0,91,56,27,0.00,40.00,0,0,1,0.00
2013-3-14,33.0,20.3,6.0,25.0,12.3,2.0,93,72,47,0.00,40.00,0,0,0,0.00
2013-3-15,34.0,28.6,24.0,29.0,24.3,20.0,97,85,57,0.00,40.00,0,0,0,0.00
2013-3-16,26.0,19.7,14.0,25.0,11.5,3.0,98,72,48,0.00,40.00,0,0,1,0.00
2013-3-17,23.0,13.4,3.0,10.0,2.5,-4.0,78,62,47,0.00,40.00,0,0,0,0.00
2013-3-18,29.0,20.2,13.0,26.0,17.8,9.0,95,91,78,0.00,40.00,0,0,2,0.00
2013-3-19,21.0,14.6,9.0,11.0,5.8,0.0,90,70,49,0.00,40.00,0,0,1,0.00
2013-3-20,16.0,8.4,0.0,1.0,-3.1,-8.0,71,59,52,0.00,40.00,0,0,1,0.00
2013-3-21,24.0,12.3,0.0,8.0,3.2,-6.0,88,68,46,0.00,40.00,0,0,0,0.00
2013-3-22,33.0,18.6,1.0,11.0,5.8,-2.0,89,61,35,0.00,40.00,0,0,0,0.00
2013-3-23,35.0,23.6,9.0,20.0,13.3,5.0,93,67,39,0.00,40.00,0,0,0,0.00
2013-3-24,31.0,27.7,24.0,22.0,20.1,19.0,85,73,61,0.00,40.00,0,0,0,0.00
2013-3-25,34.0,26.0,16.0,22.0,17.6,15.0,95,72,49,0.00,40.00,0,0,0,0.00
2013-3-26,35.0,29.3,22.0,24.0,18.6,16.0,89,66,44,0.00,40.00,0,0,0,0.00
2013-3-27,38.0,32.1,27.0,22.0,17.2,12.0,71,55,36,0.00,40.00,0,0,0,0.00
2013-3-28,41.0,29.2,14.0,17.0,13.6,11.0,89,57,32,0.00,40.00,0,0,0,0.00
2013-3-29,48.0,32.6,17.0,22.0,15.5,14.0,88,54,27,0.00,40.00,0,0,0,0.00
2013-3-30,38.0,35.6,32.0,37.0,30.0,-99.9,98,85,60,0.00,40.00,0,0,0,0.00
2013-3-31,36.0,31.2,26.0,32.0,22.6,8.0,98,74,36,0.00,40.00,0,0,1,0.00